createdAt,value
2022-08-04T00:07:07.176Z,1013.77
2022-08-04T00:17:01.666Z,1013.85
2022-08-04T00:27:01.603Z,1013.90
2022-08-04T00:32:01.474Z,1013.93
2022-08-04T00:47:01.556Z,1014.00
2022-08-04T01:02:21.253Z,1013.73
2022-08-04T01:17:01.414Z,1013.60
2022-08-04T01:22:01.710Z,1013.67
2022-08-04T01:32:01.788Z,1013.47
2022-08-04T01:42:01.621Z,1013.36
2022-08-04T02:12:01.416Z,1013.29
2022-08-04T02:23:01.513Z,1013.15
2022-08-04T02:28:01.514Z,1013.15
2022-08-04T02:38:01.247Z,1013.12
2022-08-04T02:43:01.252Z,1013.10
2022-08-04T02:58:01.252Z,1013.08
2022-08-04T03:13:01.298Z,1012.90
2022-08-04T03:18:01.317Z,1012.90
2022-08-04T03:23:14.223Z,1012.83
2022-08-04T03:38:01.245Z,1012.55
2022-08-04T03:43:01.258Z,1012.57
2022-08-04T03:53:06.591Z,1012.62
2022-08-04T04:08:04.837Z,1012.56
2022-08-04T04:23:01.395Z,1012.39
2022-08-04T04:33:01.240Z,1012.49
2022-08-04T04:43:01.377Z,1012.44
2022-08-04T04:48:10.726Z,1012.44
2022-08-04T04:53:01.243Z,1012.45
2022-08-04T04:58:01.254Z,1012.45
2022-08-04T05:03:09.113Z,1012.41
2022-08-04T05:09:01.221Z,1012.41
2022-08-04T05:19:01.247Z,1012.43
2022-08-04T05:24:01.246Z,1012.45
2022-08-04T05:29:01.291Z,1012.45
2022-08-04T05:34:01.249Z,1012.55
2022-08-04T05:39:01.403Z,1012.55
2022-08-04T05:44:01.259Z,1012.61
2022-08-04T05:50:03.445Z,1012.50
2022-08-04T07:20:01.261Z,1010.75
2022-08-04T07:30:01.211Z,1010.68
2022-08-04T07:40:01.375Z,1010.51
2022-08-04T07:45:01.212Z,1010.51
2022-08-04T07:50:01.090Z,1010.33
2022-08-04T07:55:01.231Z,1010.33
2022-08-04T08:00:02.594Z,1010.23
2022-08-04T08:05:01.220Z,1010.23
2022-08-04T08:10:01.155Z,1010.17
2022-08-04T08:15:01.239Z,1010.17
2022-08-04T08:20:01.071Z,1010.10
2022-08-04T08:25:06.262Z,1010.10
2022-08-04T08:30:01.059Z,1009.81
2022-08-04T08:35:01.353Z,1009.81
2022-08-04T08:40:01.153Z,1009.70
2022-08-04T08:45:01.232Z,1009.70
2022-08-04T08:50:05.065Z,1009.59
2022-08-04T08:55:01.200Z,1009.59
2022-08-04T09:00:02.423Z,1009.46
2022-08-04T09:05:01.144Z,1009.46
2022-08-04T09:10:01.231Z,1009.42
2022-08-04T09:15:01.161Z,1009.42
2022-08-04T09:20:01.079Z,1009.34
2022-08-04T09:25:01.214Z,1009.34
2022-08-04T09:30:01.077Z,1009.31
2022-08-04T09:35:13.472Z,1009.31
2022-08-04T09:40:02.027Z,1009.27
2022-08-04T09:45:06.988Z,1009.27
2022-08-04T09:50:01.093Z,1009.26
2022-08-04T09:55:01.222Z,1009.26
2022-08-04T10:00:03.045Z,1009.25
2022-08-04T10:10:01.158Z,1009.28
2022-08-04T10:15:07.902Z,1009.28
2022-08-04T10:20:01.096Z,1009.27
2022-08-04T10:25:01.349Z,1009.27
2022-08-04T10:30:01.090Z,1009.18
2022-08-04T10:35:03.624Z,1009.18
2022-08-04T10:40:01.250Z,1009.16
2022-08-04T10:45:02.259Z,1009.16
2022-08-04T10:50:01.101Z,1009.06
2022-08-04T10:55:08.908Z,1009.06
2022-08-04T11:00:04.608Z,1008.99
2022-08-04T11:05:01.432Z,1008.99
2022-08-04T11:10:01.372Z,1008.98
2022-08-04T11:15:01.433Z,1008.98
2022-08-04T11:25:01.084Z,1008.92
2022-08-04T11:30:01.510Z,1008.86
2022-08-04T11:45:01.476Z,1008.74
2022-08-04T11:50:01.124Z,1008.71
2022-08-04T11:55:01.373Z,1008.71
2022-08-04T12:00:07.951Z,1008.69
2022-08-04T12:05:01.287Z,1008.69
2022-08-04T12:10:01.318Z,1008.72
2022-08-04T12:15:02.314Z,1008.72
2022-08-04T12:25:01.061Z,1008.68
2022-08-04T12:35:01.079Z,1008.63
2022-08-04T12:45:02.275Z,1008.52
2022-08-04T12:55:01.344Z,1008.42
2022-08-04T13:00:02.611Z,1008.41
2022-08-04T13:05:17.636Z,1008.41
2022-08-04T13:10:01.144Z,1008.23
2022-08-04T13:30:04.240Z,1008.10
2022-08-04T13:40:01.547Z,1008.10
2022-08-04T13:45:01.600Z,1008.10
2022-08-04T13:50:12.282Z,1008.23
2022-08-04T13:55:01.781Z,1008.23
2022-08-04T14:00:03.257Z,1008.33
2022-08-04T14:05:19.095Z,1008.33
2022-08-04T14:10:04.379Z,1008.35
2022-08-04T14:15:01.747Z,1008.35
2022-08-04T14:20:01.871Z,1008.23
2022-08-04T14:25:01.508Z,1008.23
2022-08-04T14:30:01.577Z,1008.30
2022-08-04T14:35:06.522Z,1008.30
2022-08-04T14:40:19.483Z,1008.30
2022-08-04T14:45:01.656Z,1008.30
2022-08-04T14:55:04.078Z,1008.06
2022-08-04T15:00:10.710Z,1008.12
2022-08-04T15:30:03.077Z,1008.53
2022-08-04T15:40:00.616Z,1008.70
2022-08-04T15:45:00.676Z,1008.70
2022-08-04T15:50:00.591Z,1008.99
2022-08-04T15:55:02.044Z,1008.99
2022-08-04T16:00:00.847Z,1008.97
2022-08-04T16:05:00.792Z,1008.97
2022-08-04T16:10:00.597Z,1009.22
2022-08-04T16:15:01.823Z,1009.22
2022-08-04T16:20:00.661Z,1009.44
2022-08-04T16:25:00.722Z,1009.44
2022-08-04T16:30:01.619Z,1009.12
2022-08-04T16:35:00.815Z,1009.12
2022-08-04T16:40:00.664Z,1009.44
2022-08-04T16:45:00.762Z,1009.44
2022-08-04T17:00:02.079Z,1009.57
2022-08-04T17:15:01.758Z,1009.44
2022-08-04T17:20:00.642Z,1009.51
2022-08-04T17:25:00.587Z,1009.51
2022-08-04T17:30:00.884Z,1009.38
2022-08-04T17:40:00.659Z,1009.54
2022-08-04T17:45:00.715Z,1009.54
2022-08-04T17:50:00.691Z,1009.41
2022-08-04T17:55:03.250Z,1009.41
2022-08-04T18:00:02.121Z,1009.53
2022-08-04T18:05:10.717Z,1009.53
2022-08-04T18:15:00.650Z,1009.51
2022-08-04T18:20:01.826Z,1009.74
2022-08-04T18:25:00.859Z,1009.74
2022-08-04T18:35:16.997Z,1009.88
2022-08-04T18:45:01.240Z,1010.20
2022-08-04T18:55:03.287Z,1010.32
2022-08-04T19:00:01.814Z,1010.62
2022-08-04T19:05:02.057Z,1010.62
2022-08-04T19:10:02.171Z,1010.97
2022-08-04T19:15:11.539Z,1010.97
2022-08-04T19:20:00.834Z,1011.24
2022-08-04T19:25:02.356Z,1011.24
2022-08-04T19:30:01.228Z,1011.42
2022-08-04T19:35:00.649Z,1011.42
2022-08-04T19:40:00.736Z,1011.58
2022-08-04T19:45:02.447Z,1011.58
2022-08-04T19:50:10.600Z,1011.85
2022-08-04T19:55:11.242Z,1011.85
2022-08-04T20:00:00.982Z,1012.07
2022-08-04T20:05:00.748Z,1012.07
2022-08-04T20:15:00.664Z,1012.05
2022-08-04T20:20:00.667Z,1012.20
2022-08-04T20:30:02.147Z,1012.22
2022-08-04T20:40:00.991Z,1012.28
2022-08-04T20:45:01.916Z,1012.28
2022-08-04T20:50:01.073Z,1012.41
2022-08-04T20:55:00.688Z,1012.41
2022-08-04T21:00:01.026Z,1012.47
2022-08-04T21:05:00.801Z,1012.47
2022-08-04T21:10:00.961Z,1012.51
2022-08-04T21:15:16.342Z,1012.51
2022-08-04T21:20:00.835Z,1012.60
2022-08-04T21:25:01.532Z,1012.60
2022-08-04T21:30:00.741Z,1012.64
2022-08-04T21:40:16.905Z,1012.49
2022-08-04T21:45:03.692Z,1012.49
2022-08-04T21:50:01.267Z,1012.36
2022-08-04T21:55:00.970Z,1012.36
2022-08-04T22:00:03.668Z,1012.43
2022-08-04T22:10:03.451Z,1012.41
2022-08-04T22:15:00.713Z,1012.41
2022-08-04T22:20:02.545Z,1012.50
2022-08-04T22:25:01.134Z,1012.50
2022-08-04T23:00:04.328Z,1012.38
2022-08-04T23:05:01.886Z,1012.38
2022-08-04T23:15:02.464Z,1012.43
2022-08-04T23:20:01.390Z,1012.34
2022-08-04T23:25:17.026Z,1012.34
2022-08-04T23:30:06.389Z,1012.44
2022-08-04T23:35:01.573Z,1012.44
2022-08-04T23:45:01.322Z,1012.47
2022-08-04T23:50:01.391Z,1012.53
